Richville, Utah
Current Conditions -  °F | °C
As of 5:58 PM on Saturday 25 Oct 2014 (Local Time) from KHIF Reporting Station
Clear Clear  
Wind Chill: 71°   Ceiling: Unl
Heat Index: 71°   Visibility: 10mi
Dew Point: 35°   Wind: 16mph
Humidity: 27%   Direction: 190°S
Pressure: 29.93"   Gusts: NA
Location:  41.0884°N, 111.576°W
Report Text: KHIF 252358Z AUTO 19014KT 10SM CLR 22/02 A2993 RMK AO2 SLP091 60000 T02190018 10246 20219 57018
Loading
Personal Weather Stations






























Interactive Weather Map
Tropical Storm Tracking
New forecast layout! Learn more

10-Day Weather Forecast

Advertisements
Track Severe Weather on mobile